sensor_id;sensor_type;location;lat;lon;timestamp;temperature;humidity
3281;DHT22;1652;51.318;6.202;2022-12-26T00:00:36;10.60;99.90
3281;DHT22;1652;51.318;6.202;2022-12-26T00:03:03;10.60;99.90
3281;DHT22;1652;51.318;6.202;2022-12-26T00:05:37;10.60;99.90
3281;DHT22;1652;51.318;6.202;2022-12-26T00:08:04;10.60;99.90
3281;DHT22;1652;51.318;6.202;2022-12-26T00:10:31;10.60;99.90
3281;DHT22;1652;51.318;6.202;2022-12-26T00:12:58;10.60;99.90
3281;DHT22;1652;51.318;6.202;2022-12-26T00:15:45;10.60;99.90
3281;DHT22;1652;51.318;6.202;2022-12-26T00:18:12;10.60;99.90
3281;DHT22;1652;51.318;6.202;2022-12-26T00:20:38;10.60;99.90
3281;DHT22;1652;51.318;6.202;2022-12-26T00:23:05;10.60;99.90
3281;DHT22;1652;51.318;6.202;2022-12-26T00:25:32;10.60;99.90
3281;DHT22;1652;51.318;6.202;2022-12-26T00:28:00;10.60;99.90
3281;DHT22;1652;51.318;6.202;2022-12-26T00:30:27;10.60;99.90
3281;DHT22;1652;51.318;6.202;2022-12-26T00:32:54;10.60;99.90
3281;DHT22;1652;51.318;6.202;2022-12-26T00:35:21;10.60;99.90
3281;DHT22;1652;51.318;6.202;2022-12-26T00:37:48;10.60;99.90
3281;DHT22;1652;51.318;6.202;2022-12-26T00:40:15;10.50;99.90
3281;DHT22;1652;51.318;6.202;2022-12-26T00:42:41;10.40;99.90
3281;DHT22;1652;51.318;6.202;2022-12-26T00:45:09;10.40;99.90
3281;DHT22;1652;51.318;6.202;2022-12-26T00:47:35;10.50;99.90
3281;DHT22;1652;51.318;6.202;2022-12-26T00:50:02;10.40;99.90
3281;DHT22;1652;51.318;6.202;2022-12-26T00:52:41;10.40;99.90
3281;DHT22;1652;51.318;6.202;2022-12-26T00:55:08;10.40;99.90
3281;DHT22;1652;51.318;6.202;2022-12-26T00:57:35;10.30;99.90
3281;DHT22;1652;51.318;6.202;2022-12-26T01:00:03;10.30;99.90
3281;DHT22;1652;51.318;6.202;2022-12-26T01:02:30;10.30;99.90
3281;DHT22;1652;51.318;6.202;2022-12-26T01:05:08;10.30;99.90
3281;DHT22;1652;51.318;6.202;2022-12-26T01:07:36;10.40;99.90
3281;DHT22;1652;51.318;6.202;2022-12-26T01:10:23;10.40;99.90
3281;DHT22;1652;51.318;6.202;2022-12-26T01:12:50;10.30;99.90
3281;DHT22;1652;51.318;6.202;2022-12-26T01:15:17;10.30;99.90
3281;DHT22;1652;51.318;6.202;2022-12-26T01:17:45;10.30;99.90
3281;DHT22;1652;51.318;6.202;2022-12-26T01:20:12;10.40;99.90
3281;DHT22;1652;51.318;6.202;2022-12-26T01:22:39;10.30;99.90
3281;DHT22;1652;51.318;6.202;2022-12-26T01:25:06;10.30;99.90
3281;DHT22;1652;51.318;6.202;2022-12-26T01:27:33;10.20;99.90
3281;DHT22;1652;51.318;6.202;2022-12-26T01:30:00;10.30;99.90
3281;DHT22;1652;51.318;6.202;2022-12-26T01:32:26;10.30;99.90
3281;DHT22;1652;51.318;6.202;2022-12-26T01:34:53;10.40;99.90
3281;DHT22;1652;51.318;6.202;2022-12-26T01:39:48;10.40;99.90
3281;DHT22;1652;51.318;6.202;2022-12-26T01:42:18;10.40;99.90
3281;DHT22;1652;51.318;6.202;2022-12-26T01:50:22;10.40;99.90
3281;DHT22;1652;51.318;6.202;2022-12-26T01:52:52;10.40;99.90
3281;DHT22;1652;51.318;6.202;2022-12-26T01:55:22;10.40;99.90
3281;DHT22;1652;51.318;6.202;2022-12-26T01:57:57;10.30;99.90
3281;DHT22;1652;51.318;6.202;2022-12-26T02:00:25;10.30;99.90
3281;DHT22;1652;51.318;6.202;2022-12-26T02:02:52;10.20;99.90
3281;DHT22;1652;51.318;6.202;2022-12-26T02:05:38;10.30;99.90
3281;DHT22;1652;51.318;6.202;2022-12-26T02:08:16;10.30;99.90
3281;DHT22;1652;51.318;6.202;2022-12-26T02:13:27;10.30;99.90
3281;DHT22;1652;51.318;6.202;2022-12-26T02:15:55;10.30;99.90
3281;DHT22;1652;51.318;6.202;2022-12-26T02:18:22;10.40;99.90
3281;DHT22;1652;51.318;6.202;2022-12-26T02:38:24;10.20;99.90
3281;DHT22;1652;51.318;6.202;2022-12-26T02:44:08;10.10;99.90
3281;DHT22;1652;51.318;6.202;2022-12-26T02:47:14;10.00;99.90
3281;DHT22;1652;51.318;6.202;2022-12-26T02:55:46;9.90;99.90
3281;DHT22;1652;51.318;6.202;2022-12-26T02:58:41;9.90;99.90
3281;DHT22;1652;51.318;6.202;2022-12-26T03:01:33;10.00;99.90
3281;DHT22;1652;51.318;6.202;2022-12-26T03:04:25;10.00;99.90
3281;DHT22;1652;51.318;6.202;2022-12-26T03:07:15;10.00;99.90
3281;DHT22;1652;51.318;6.202;2022-12-26T03:10:06;10.00;99.90
3281;DHT22;1652;51.318;6.202;2022-12-26T03:13:01;10.10;99.90
3281;DHT22;1652;51.318;6.202;2022-12-26T03:18:31;10.00;99.90
3281;DHT22;1652;51.318;6.202;2022-12-26T03:21:22;10.00;99.90
3281;DHT22;1652;51.318;6.202;2022-12-26T03:23:51;10.10;99.90
3281;DHT22;1652;51.318;6.202;2022-12-26T03:26:30;10.00;99.90
3281;DHT22;1652;51.318;6.202;2022-12-26T03:29:16;10.00;99.90
3281;DHT22;1652;51.318;6.202;2022-12-26T03:32:06;10.00;99.90
3281;DHT22;1652;51.318;6.202;2022-12-26T03:34:35;9.90;99.90
3281;DHT22;1652;51.318;6.202;2022-12-26T03:46:21;9.90;99.90
3281;DHT22;1652;51.318;6.202;2022-12-26T03:49:19;10.00;99.90
3281;DHT22;1652;51.318;6.202;2022-12-26T03:55:16;9.90;99.90
3281;DHT22;1652;51.318;6.202;2022-12-26T04:00:54;9.90;99.90
3281;DHT22;1652;51.318;6.202;2022-12-26T04:03:43;9.80;99.90
3281;DHT22;1652;51.318;6.202;2022-12-26T04:06:42;9.80;99.90
3281;DHT22;1652;51.318;6.202;2022-12-26T04:09:37;9.70;99.90
3281;DHT22;1652;51.318;6.202;2022-12-26T04:12:25;9.60;99.90
3281;DHT22;1652;51.318;6.202;2022-12-26T04:15:25;9.60;99.90
3281;DHT22;1652;51.318;6.202;2022-12-26T04:18:21;9.60;99.90
3281;DHT22;1652;51.318;6.202;2022-12-26T04:21:10;9.60;99.90
3281;DHT22;1652;51.318;6.202;2022-12-26T04:24:11;9.50;99.90
3281;DHT22;1652;51.318;6.202;2022-12-26T04:27:00;9.50;99.90
3281;DHT22;1652;51.318;6.202;2022-12-26T04:29:46;9.50;99.90
3281;DHT22;1652;51.318;6.202;2022-12-26T04:32:43;9.40;99.90
3281;DHT22;1652;51.318;6.202;2022-12-26T04:35:46;9.40;99.90
3281;DHT22;1652;51.318;6.202;2022-12-26T04:38:46;9.40;99.90
3281;DHT22;1652;51.318;6.202;2022-12-26T04:41:34;9.40;99.90
3281;DHT22;1652;51.318;6.202;2022-12-26T04:44:22;9.40;99.90
3281;DHT22;1652;51.318;6.202;2022-12-26T04:46:51;9.40;99.90
3281;DHT22;1652;51.318;6.202;2022-12-26T04:49:18;9.30;99.90
3281;DHT22;1652;51.318;6.202;2022-12-26T04:52:09;9.40;99.90
3281;DHT22;1652;51.318;6.202;2022-12-26T04:54:37;9.40;99.90
3281;DHT22;1652;51.318;6.202;2022-12-26T04:57:04;9.40;99.90
3281;DHT22;1652;51.318;6.202;2022-12-26T04:59:32;9.40;99.90
3281;DHT22;1652;51.318;6.202;2022-12-26T05:01:59;9.30;99.90
3281;DHT22;1652;51.318;6.202;2022-12-26T05:04:44;9.30;99.90
3281;DHT22;1652;51.318;6.202;2022-12-26T05:07:34;9.30;99.90
3281;DHT22;1652;51.318;6.202;2022-12-26T05:10:22;9.30;99.90
3281;DHT22;1652;51.318;6.202;2022-12-26T05:12:51;9.40;99.90
3281;DHT22;1652;51.318;6.202;2022-12-26T05:15:18;9.40;99.90
3281;DHT22;1652;51.318;6.202;2022-12-26T05:17:45;9.30;99.90
3281;DHT22;1652;51.318;6.202;2022-12-26T05:20:30;9.40;99.90
3281;DHT22;1652;51.318;6.202;2022-12-26T05:23:22;9.30;99.90
3281;DHT22;1652;51.318;6.202;2022-12-26T05:26:16;9.40;99.90
3281;DHT22;1652;51.318;6.202;2022-12-26T05:29:03;9.30;99.90
3281;DHT22;1652;51.318;6.202;2022-12-26T05:31:30;9.30;99.90
3281;DHT22;1652;51.318;6.202;2022-12-26T05:34:03;9.30;99.90
3281;DHT22;1652;51.318;6.202;2022-12-26T05:39:10;9.30;99.90
3281;DHT22;1652;51.318;6.202;2022-12-26T05:41:37;9.30;99.90
3281;DHT22;1652;51.318;6.202;2022-12-26T05:44:06;9.30;99.90
3281;DHT22;1652;51.318;6.202;2022-12-26T05:46:34;9.30;99.90
3281;DHT22;1652;51.318;6.202;2022-12-26T05:49:02;9.20;99.90
3281;DHT22;1652;51.318;6.202;2022-12-26T05:51:29;9.20;99.90
3281;DHT22;1652;51.318;6.202;2022-12-26T05:53:56;9.20;99.90
3281;DHT22;1652;51.318;6.202;2022-12-26T05:56:22;9.20;99.90
3281;DHT22;1652;51.318;6.202;2022-12-26T05:58:54;9.30;99.90
3281;DHT22;1652;51.318;6.202;2022-12-26T06:01:21;9.30;99.90
3281;DHT22;1652;51.318;6.202;2022-12-26T06:03:51;9.30;99.90
3281;DHT22;1652;51.318;6.202;2022-12-26T06:06:19;9.30;99.90
3281;DHT22;1652;51.318;6.202;2022-12-26T06:08:50;9.20;99.90
3281;DHT22;1652;51.318;6.202;2022-12-26T06:11:18;9.30;99.90
3281;DHT22;1652;51.318;6.202;2022-12-26T06:13:45;9.30;99.90
3281;DHT22;1652;51.318;6.202;2022-12-26T06:16:14;9.30;99.90
3281;DHT22;1652;51.318;6.202;2022-12-26T06:18:41;9.30;99.90
3281;DHT22;1652;51.318;6.202;2022-12-26T06:21:10;9.40;99.90
3281;DHT22;1652;51.318;6.202;2022-12-26T06:23:38;9.40;99.90
3281;DHT22;1652;51.318;6.202;2022-12-26T06:26:05;9.30;99.90
3281;DHT22;1652;51.318;6.202;2022-12-26T06:28:35;9.30;99.90
3281;DHT22;1652;51.318;6.202;2022-12-26T06:31:13;9.30;99.90
3281;DHT22;1652;51.318;6.202;2022-12-26T06:33:41;9.30;99.90
3281;DHT22;1652;51.318;6.202;2022-12-26T06:36:13;9.30;99.90
3281;DHT22;1652;51.318;6.202;2022-12-26T06:38:41;9.40;99.90
3281;DHT22;1652;51.318;6.202;2022-12-26T06:41:10;9.40;99.90
3281;DHT22;1652;51.318;6.202;2022-12-26T06:43:37;9.40;99.90
3281;DHT22;1652;51.318;6.202;2022-12-26T06:46:05;9.40;99.90
3281;DHT22;1652;51.318;6.202;2022-12-26T06:48:34;9.40;99.90
3281;DHT22;1652;51.318;6.202;2022-12-26T06:51:10;9.40;99.90
3281;DHT22;1652;51.318;6.202;2022-12-26T06:53:37;9.40;99.90
3281;DHT22;1652;51.318;6.202;2022-12-26T06:56:13;9.50;99.90
3281;DHT22;1652;51.318;6.202;2022-12-26T06:58:41;9.40;99.90
3281;DHT22;1652;51.318;6.202;2022-12-26T07:01:10;9.40;99.90
3281;DHT22;1652;51.318;6.202;2022-12-26T07:03:37;9.50;99.90
3281;DHT22;1652;51.318;6.202;2022-12-26T07:06:12;9.50;99.90
3281;DHT22;1652;51.318;6.202;2022-12-26T07:08:40;9.50;99.90
3281;DHT22;1652;51.318;6.202;2022-12-26T07:11:18;9.50;99.90
3281;DHT22;1652;51.318;6.202;2022-12-26T07:13:45;9.60;99.90
3281;DHT22;1652;51.318;6.202;2022-12-26T07:16:12;9.60;99.90
3281;DHT22;1652;51.318;6.202;2022-12-26T07:18:40;9.60;99.90
3281;DHT22;1652;51.318;6.202;2022-12-26T07:21:09;9.60;99.90
3281;DHT22;1652;51.318;6.202;2022-12-26T07:23:36;9.70;99.90
3281;DHT22;1652;51.318;6.202;2022-12-26T07:26:03;9.70;99.90
3281;DHT22;1652;51.318;6.202;2022-12-26T07:28:30;9.80;99.90
3281;DHT22;1652;51.318;6.202;2022-12-26T07:30:57;9.70;99.90
3281;DHT22;1652;51.318;6.202;2022-12-26T07:33:26;9.70;99.90
3281;DHT22;1652;51.318;6.202;2022-12-26T07:36:01;9.80;99.90
3281;DHT22;1652;51.318;6.202;2022-12-26T07:38:28;9.80;99.90
3281;DHT22;1652;51.318;6.202;2022-12-26T07:40:55;9.80;99.90
3281;DHT22;1652;51.318;6.202;2022-12-26T07:43:23;9.80;99.90
3281;DHT22;1652;51.318;6.202;2022-12-26T07:45:50;9.80;99.90
3281;DHT22;1652;51.318;6.202;2022-12-26T07:48:17;9.80;99.90
3281;DHT22;1652;51.318;6.202;2022-12-26T07:50:44;9.80;99.90
3281;DHT22;1652;51.318;6.202;2022-12-26T07:53:13;9.80;99.90
3281;DHT22;1652;51.318;6.202;2022-12-26T07:55:40;9.90;99.90
3281;DHT22;1652;51.318;6.202;2022-12-26T07:58:07;9.90;99.90
3281;DHT22;1652;51.318;6.202;2022-12-26T08:00:34;9.90;99.90
3281;DHT22;1652;51.318;6.202;2022-12-26T08:03:01;9.90;99.90
3281;DHT22;1652;51.318;6.202;2022-12-26T08:05:33;9.80;99.90
3281;DHT22;1652;51.318;6.202;2022-12-26T08:07:59;9.80;99.90
3281;DHT22;1652;51.318;6.202;2022-12-26T08:10:26;9.70;99.90
3281;DHT22;1652;51.318;6.202;2022-12-26T08:12:53;9.70;99.90
3281;DHT22;1652;51.318;6.202;2022-12-26T08:15:20;9.70;99.90
3281;DHT22;1652;51.318;6.202;2022-12-26T08:17:47;9.70;99.90
3281;DHT22;1652;51.318;6.202;2022-12-26T08:20:13;9.70;99.90
3281;DHT22;1652;51.318;6.202;2022-12-26T08:22:40;9.80;99.90
3281;DHT22;1652;51.318;6.202;2022-12-26T08:25:07;9.70;99.90
3281;DHT22;1652;51.318;6.202;2022-12-26T08:27:34;9.70;99.90
3281;DHT22;1652;51.318;6.202;2022-12-26T08:30:02;9.70;99.90
3281;DHT22;1652;51.318;6.202;2022-12-26T08:32:28;9.70;99.90
3281;DHT22;1652;51.318;6.202;2022-12-26T08:34:56;9.80;99.90
3281;DHT22;1652;51.318;6.202;2022-12-26T08:37:22;9.90;99.90
3281;DHT22;1652;51.318;6.202;2022-12-26T08:39:50;9.90;99.90
3281;DHT22;1652;51.318;6.202;2022-12-26T08:42:19;9.90;99.90
3281;DHT22;1652;51.318;6.202;2022-12-26T08:44:46;9.90;99.90
3281;DHT22;1652;51.318;6.202;2022-12-26T08:47:13;9.90;99.90
3281;DHT22;1652;51.318;6.202;2022-12-26T08:49:40;9.90;99.90
3281;DHT22;1652;51.318;6.202;2022-12-26T08:52:07;9.80;99.90
3281;DHT22;1652;51.318;6.202;2022-12-26T08:54:34;9.80;99.90
3281;DHT22;1652;51.318;6.202;2022-12-26T08:57:01;9.80;99.90
3281;DHT22;1652;51.318;6.202;2022-12-26T08:59:28;9.70;99.90
3281;DHT22;1652;51.318;6.202;2022-12-26T09:01:54;9.70;99.90
3281;DHT22;1652;51.318;6.202;2022-12-26T09:04:21;9.70;99.90
3281;DHT22;1652;51.318;6.202;2022-12-26T09:06:48;9.80;99.90
3281;DHT22;1652;51.318;6.202;2022-12-26T09:09:15;9.90;99.90
3281;DHT22;1652;51.318;6.202;2022-12-26T09:11:42;9.90;99.90
3281;DHT22;1652;51.318;6.202;2022-12-26T09:14:10;9.90;99.90
3281;DHT22;1652;51.318;6.202;2022-12-26T09:16:42;10.00;99.90
3281;DHT22;1652;51.318;6.202;2022-12-26T09:19:16;9.90;99.90
3281;DHT22;1652;51.318;6.202;2022-12-26T09:21:44;10.00;99.90
3281;DHT22;1652;51.318;6.202;2022-12-26T09:24:13;10.00;99.90
3281;DHT22;1652;51.318;6.202;2022-12-26T09:26:41;10.00;99.90
3281;DHT22;1652;51.318;6.202;2022-12-26T09:29:11;10.10;99.90
3281;DHT22;1652;51.318;6.202;2022-12-26T09:31:38;10.10;99.90
3281;DHT22;1652;51.318;6.202;2022-12-26T09:34:06;10.20;99.90
3281;DHT22;1652;51.318;6.202;2022-12-26T09:36:35;10.10;99.90
3281;DHT22;1652;51.318;6.202;2022-12-26T09:39:04;10.10;99.90
3281;DHT22;1652;51.318;6.202;2022-12-26T09:47:34;10.20;99.90
3281;DHT22;1652;51.318;6.202;2022-12-26T09:52:51;10.20;99.90
3281;DHT22;1652;51.318;6.202;2022-12-26T09:55:58;10.20;99.90
3281;DHT22;1652;51.318;6.202;2022-12-26T09:58:51;10.20;99.90
3281;DHT22;1652;51.318;6.202;2022-12-26T10:01:25;10.20;99.90
3281;DHT22;1652;51.318;6.202;2022-12-26T10:03:57;10.40;99.90
3281;DHT22;1652;51.318;6.202;2022-12-26T10:06:26;10.50;99.90
3281;DHT22;1652;51.318;6.202;2022-12-26T10:14:51;10.90;99.90
3281;DHT22;1652;51.318;6.202;2022-12-26T10:23:31;11.10;99.90
3281;DHT22;1652;51.318;6.202;2022-12-26T10:26:13;11.20;99.90
3281;DHT22;1652;51.318;6.202;2022-12-26T10:28:46;11.20;99.90
3281;DHT22;1652;51.318;6.202;2022-12-26T10:31:21;11.30;99.90
3281;DHT22;1652;51.318;6.202;2022-12-26T10:33:57;11.30;99.90
3281;DHT22;1652;51.318;6.202;2022-12-26T10:36:32;11.40;99.90
3281;DHT22;1652;51.318;6.202;2022-12-26T10:39:02;11.50;99.90
3281;DHT22;1652;51.318;6.202;2022-12-26T10:41:45;11.60;99.90
3281;DHT22;1652;51.318;6.202;2022-12-26T10:44:13;11.70;99.90
3281;DHT22;1652;51.318;6.202;2022-12-26T10:49:29;12.00;99.90
3281;DHT22;1652;51.318;6.202;2022-12-26T10:51:58;12.10;99.90
3281;DHT22;1652;51.318;6.202;2022-12-26T10:54:28;12.10;99.90
3281;DHT22;1652;51.318;6.202;2022-12-26T10:56:56;12.00;99.90
3281;DHT22;1652;51.318;6.202;2022-12-26T10:59:47;12.00;99.90
3281;DHT22;1652;51.318;6.202;2022-12-26T11:02:26;12.00;99.90
3281;DHT22;1652;51.318;6.202;2022-12-26T11:07:49;12.00;99.90
3281;DHT22;1652;51.318;6.202;2022-12-26T11:10:23;11.80;99.90
3281;DHT22;1652;51.318;6.202;2022-12-26T11:12:52;11.70;99.90
3281;DHT22;1652;51.318;6.202;2022-12-26T11:15:33;11.50;99.90
3281;DHT22;1652;51.318;6.202;2022-12-26T11:18:32;11.40;99.90
3281;DHT22;1652;51.318;6.202;2022-12-26T11:21:11;11.30;99.90
3281;DHT22;1652;51.318;6.202;2022-12-26T11:23:38;11.30;99.90
3281;DHT22;1652;51.318;6.202;2022-12-26T11:26:24;11.20;99.90
3281;DHT22;1652;51.318;6.202;2022-12-26T11:29:16;11.20;99.90
3281;DHT22;1652;51.318;6.202;2022-12-26T11:34:22;11.20;99.90
3281;DHT22;1652;51.318;6.202;2022-12-26T11:36:52;11.20;99.90
3281;DHT22;1652;51.318;6.202;2022-12-26T11:39:26;11.10;99.90
3281;DHT22;1652;51.318;6.202;2022-12-26T11:41:54;11.00;99.90
3281;DHT22;1652;51.318;6.202;2022-12-26T11:44:34;11.00;99.90
3281;DHT22;1652;51.318;6.202;2022-12-26T11:54:59;11.00;99.90
3281;DHT22;1652;51.318;6.202;2022-12-26T11:57:31;10.90;99.90
3281;DHT22;1652;51.318;6.202;2022-12-26T12:00:18;10.90;99.90
3281;DHT22;1652;51.318;6.202;2022-12-26T12:02:45;10.90;99.90
3281;DHT22;1652;51.318;6.202;2022-12-26T12:05:28;10.90;99.90
3281;DHT22;1652;51.318;6.202;2022-12-26T12:08:26;11.00;99.90
3281;DHT22;1652;51.318;6.202;2022-12-26T12:11:05;11.10;99.90
3281;DHT22;1652;51.318;6.202;2022-12-26T12:16:43;10.90;99.90
3281;DHT22;1652;51.318;6.202;2022-12-26T12:22:30;10.30;99.90
3281;DHT22;1652;51.318;6.202;2022-12-26T12:25:27;10.20;99.90
3281;DHT22;1652;51.318;6.202;2022-12-26T12:28:18;10.20;99.90
3281;DHT22;1652;51.318;6.202;2022-12-26T12:40:04;10.10;99.90
3281;DHT22;1652;51.318;6.202;2022-12-26T12:45:38;10.10;99.90
3281;DHT22;1652;51.318;6.202;2022-12-26T12:48:31;10.10;99.90
3281;DHT22;1652;51.318;6.202;2022-12-26T12:51:37;10.00;99.90
3281;DHT22;1652;51.318;6.202;2022-12-26T12:54:23;10.00;99.90
3281;DHT22;1652;51.318;6.202;2022-12-26T12:56:54;10.00;99.90
3281;DHT22;1652;51.318;6.202;2022-12-26T13:02:36;9.90;99.90
3281;DHT22;1652;51.318;6.202;2022-12-26T13:07:39;9.90;99.90
3281;DHT22;1652;51.318;6.202;2022-12-26T13:10:22;9.90;99.90
3281;DHT22;1652;51.318;6.202;2022-12-26T13:12:51;9.90;99.90
3281;DHT22;1652;51.318;6.202;2022-12-26T13:15:31;9.90;99.90
3281;DHT22;1652;51.318;6.202;2022-12-26T13:18:13;9.90;99.90
3281;DHT22;1652;51.318;6.202;2022-12-26T13:20:47;9.90;99.90
3281;DHT22;1652;51.318;6.202;2022-12-26T13:23:39;9.90;99.90
3281;DHT22;1652;51.318;6.202;2022-12-26T13:26:33;9.90;99.90
3281;DHT22;1652;51.318;6.202;2022-12-26T13:29:44;9.90;99.90
3281;DHT22;1652;51.318;6.202;2022-12-26T13:32:15;9.80;99.90
3281;DHT22;1652;51.318;6.202;2022-12-26T13:34:43;9.70;99.90
3281;DHT22;1652;51.318;6.202;2022-12-26T13:39:43;9.50;99.90
3281;DHT22;1652;51.318;6.202;2022-12-26T13:50:57;9.20;99.90
3281;DHT22;1652;51.318;6.202;2022-12-26T13:55:56;9.10;99.90
3281;DHT22;1652;51.318;6.202;2022-12-26T13:58:48;9.10;99.90
3281;DHT22;1652;51.318;6.202;2022-12-26T14:01:34;9.00;99.90
3281;DHT22;1652;51.318;6.202;2022-12-26T14:04:23;9.00;99.90
3281;DHT22;1652;51.318;6.202;2022-12-26T14:10:17;9.00;99.90
3281;DHT22;1652;51.318;6.202;2022-12-26T14:12:55;9.10;99.90
3281;DHT22;1652;51.318;6.202;2022-12-26T14:15:41;9.10;99.90
3281;DHT22;1652;51.318;6.202;2022-12-26T14:18:34;9.10;99.90
3281;DHT22;1652;51.318;6.202;2022-12-26T14:33:01;8.50;99.90
3281;DHT22;1652;51.318;6.202;2022-12-26T14:38:45;8.30;99.90
3281;DHT22;1652;51.318;6.202;2022-12-26T14:41:16;8.20;99.90
3281;DHT22;1652;51.318;6.202;2022-12-26T14:46:58;8.30;99.90
3281;DHT22;1652;51.318;6.202;2022-12-26T14:52:32;8.20;99.90
3281;DHT22;1652;51.318;6.202;2022-12-26T14:55:45;8.20;99.90
3281;DHT22;1652;51.318;6.202;2022-12-26T14:58:36;8.10;99.90
3281;DHT22;1652;51.318;6.202;2022-12-26T15:12:54;7.60;99.90
3281;DHT22;1652;51.318;6.202;2022-12-26T15:18:49;7.50;99.90
3281;DHT22;1652;51.318;6.202;2022-12-26T15:21:29;7.50;99.90
3281;DHT22;1652;51.318;6.202;2022-12-26T15:30:40;7.50;99.90
3281;DHT22;1652;51.318;6.202;2022-12-26T15:33:25;7.40;99.90
3281;DHT22;1652;51.318;6.202;2022-12-26T15:38:57;7.20;99.90
3281;DHT22;1652;51.318;6.202;2022-12-26T15:41:46;7.00;99.90
3281;DHT22;1652;51.318;6.202;2022-12-26T15:44:22;6.90;99.90
3281;DHT22;1652;51.318;6.202;2022-12-26T15:52:48;6.60;99.90
3281;DHT22;1652;51.318;6.202;2022-12-26T16:01:09;6.40;99.90
3281;DHT22;1652;51.318;6.202;2022-12-26T16:03:54;6.30;99.90
3281;DHT22;1652;51.318;6.202;2022-12-26T16:06:41;6.30;99.90
3281;DHT22;1652;51.318;6.202;2022-12-26T16:11:58;6.10;99.90
3281;DHT22;1652;51.318;6.202;2022-12-26T16:14:33;6.00;99.90
3281;DHT22;1652;51.318;6.202;2022-12-26T16:19:45;5.90;99.90
3281;DHT22;1652;51.318;6.202;2022-12-26T16:25:05;5.70;99.90
3281;DHT22;1652;51.318;6.202;2022-12-26T16:27:35;5.70;99.90
3281;DHT22;1652;51.318;6.202;2022-12-26T16:30:16;5.70;99.90
3281;DHT22;1652;51.318;6.202;2022-12-26T16:32:44;5.70;99.90
3281;DHT22;1652;51.318;6.202;2022-12-26T16:35:21;5.60;99.90
3281;DHT22;1652;51.318;6.202;2022-12-26T16:37:50;5.50;99.90
3281;DHT22;1652;51.318;6.202;2022-12-26T16:40:22;5.50;99.90
3281;DHT22;1652;51.318;6.202;2022-12-26T16:42:57;5.50;99.90
3281;DHT22;1652;51.318;6.202;2022-12-26T16:45:25;5.50;99.90
3281;DHT22;1652;51.318;6.202;2022-12-26T16:47:53;5.50;99.90
3281;DHT22;1652;51.318;6.202;2022-12-26T16:50:23;5.50;99.90
3281;DHT22;1652;51.318;6.202;2022-12-26T16:53:10;5.40;99.90
3281;DHT22;1652;51.318;6.202;2022-12-26T16:55:47;5.40;99.90
3281;DHT22;1652;51.318;6.202;2022-12-26T16:58:22;5.40;99.90
3281;DHT22;1652;51.318;6.202;2022-12-26T17:01:13;5.40;99.90
3281;DHT22;1652;51.318;6.202;2022-12-26T17:03:54;5.40;99.90
3281;DHT22;1652;51.318;6.202;2022-12-26T17:06:31;5.30;99.90
3281;DHT22;1652;51.318;6.202;2022-12-26T17:09:06;5.20;99.90
3281;DHT22;1652;51.318;6.202;2022-12-26T17:11:37;5.20;99.90
3281;DHT22;1652;51.318;6.202;2022-12-26T17:14:06;5.10;99.90
3281;DHT22;1652;51.318;6.202;2022-12-26T17:16:42;5.10;99.90
3281;DHT22;1652;51.318;6.202;2022-12-26T17:19:20;5.10;99.90
3281;DHT22;1652;51.318;6.202;2022-12-26T17:22:08;4.90;99.90
3281;DHT22;1652;51.318;6.202;2022-12-26T17:24:46;4.90;99.90
3281;DHT22;1652;51.318;6.202;2022-12-26T17:27:23;4.90;99.90
3281;DHT22;1652;51.318;6.202;2022-12-26T17:29:56;4.80;99.90
3281;DHT22;1652;51.318;6.202;2022-12-26T17:32:30;4.80;99.90
3281;DHT22;1652;51.318;6.202;2022-12-26T17:35:04;4.80;99.90
3281;DHT22;1652;51.318;6.202;2022-12-26T17:37:32;4.70;99.90
3281;DHT22;1652;51.318;6.202;2022-12-26T17:40:05;4.70;99.90
3281;DHT22;1652;51.318;6.202;2022-12-26T17:42:50;4.60;99.90
3281;DHT22;1652;51.318;6.202;2022-12-26T17:45:20;4.60;99.90
3281;DHT22;1652;51.318;6.202;2022-12-26T17:47:50;4.60;99.90
3281;DHT22;1652;51.318;6.202;2022-12-26T17:50:17;4.60;99.90
3281;DHT22;1652;51.318;6.202;2022-12-26T17:52:44;4.50;99.90
3281;DHT22;1652;51.318;6.202;2022-12-26T17:55:24;4.40;99.90
3281;DHT22;1652;51.318;6.202;2022-12-26T17:57:52;4.40;99.90
3281;DHT22;1652;51.318;6.202;2022-12-26T18:00:24;4.40;99.90
3281;DHT22;1652;51.318;6.202;2022-12-26T18:02:51;4.40;99.90
3281;DHT22;1652;51.318;6.202;2022-12-26T18:05:19;4.50;99.90
3281;DHT22;1652;51.318;6.202;2022-12-26T18:07:48;4.50;99.90
3281;DHT22;1652;51.318;6.202;2022-12-26T18:10:22;4.40;99.90
3281;DHT22;1652;51.318;6.202;2022-12-26T18:12:50;4.40;99.90
3281;DHT22;1652;51.318;6.202;2022-12-26T18:15:17;4.50;99.90
3281;DHT22;1652;51.318;6.202;2022-12-26T18:17:46;4.40;99.90
3281;DHT22;1652;51.318;6.202;2022-12-26T18:20:20;4.40;99.90
3281;DHT22;1652;51.318;6.202;2022-12-26T18:22:47;4.30;99.90
3281;DHT22;1652;51.318;6.202;2022-12-26T18:25:17;4.30;99.90
3281;DHT22;1652;51.318;6.202;2022-12-26T18:27:44;4.20;99.90
3281;DHT22;1652;51.318;6.202;2022-12-26T18:30:18;4.20;99.90
3281;DHT22;1652;51.318;6.202;2022-12-26T18:32:47;4.20;99.90
3281;DHT22;1652;51.318;6.202;2022-12-26T18:35:15;4.20;99.90
3281;DHT22;1652;51.318;6.202;2022-12-26T18:37:48;4.10;99.90
3281;DHT22;1652;51.318;6.202;2022-12-26T18:40:35;4.10;99.90
3281;DHT22;1652;51.318;6.202;2022-12-26T18:43:04;4.10;99.90
3281;DHT22;1652;51.318;6.202;2022-12-26T18:45:31;4.10;99.90
3281;DHT22;1652;51.318;6.202;2022-12-26T18:47:58;4.10;99.90
3281;DHT22;1652;51.318;6.202;2022-12-26T18:50:27;4.20;99.90
3281;DHT22;1652;51.318;6.202;2022-12-26T18:52:54;4.00;99.90
3281;DHT22;1652;51.318;6.202;2022-12-26T18:55:22;4.00;99.90
3281;DHT22;1652;51.318;6.202;2022-12-26T18:57:50;4.00;99.90
3281;DHT22;1652;51.318;6.202;2022-12-26T19:00:18;4.00;99.90
3281;DHT22;1652;51.318;6.202;2022-12-26T19:02:45;3.90;99.90
3281;DHT22;1652;51.318;6.202;2022-12-26T19:07:44;3.90;99.90
3281;DHT22;1652;51.318;6.202;2022-12-26T19:10:15;3.90;99.90
3281;DHT22;1652;51.318;6.202;2022-12-26T19:12:42;3.80;99.90
3281;DHT22;1652;51.318;6.202;2022-12-26T19:15:10;3.90;99.90
3281;DHT22;1652;51.318;6.202;2022-12-26T19:17:37;3.90;99.90
3281;DHT22;1652;51.318;6.202;2022-12-26T19:20:06;4.00;99.90
3281;DHT22;1652;51.318;6.202;2022-12-26T19:22:34;3.90;99.90
3281;DHT22;1652;51.318;6.202;2022-12-26T19:25:00;3.90;99.90
3281;DHT22;1652;51.318;6.202;2022-12-26T19:27:27;3.90;99.90
3281;DHT22;1652;51.318;6.202;2022-12-26T19:29:55;3.80;99.90
3281;DHT22;1652;51.318;6.202;2022-12-26T19:32:22;3.90;99.90
3281;DHT22;1652;51.318;6.202;2022-12-26T19:34:48;3.90;99.90
3281;DHT22;1652;51.318;6.202;2022-12-26T19:37:15;3.90;99.90
3281;DHT22;1652;51.318;6.202;2022-12-26T19:39:42;3.90;99.90
3281;DHT22;1652;51.318;6.202;2022-12-26T19:42:09;3.90;99.90
3281;DHT22;1652;51.318;6.202;2022-12-26T19:44:35;3.90;99.90
3281;DHT22;1652;51.318;6.202;2022-12-26T19:47:02;3.80;99.90
3281;DHT22;1652;51.318;6.202;2022-12-26T19:49:38;3.80;99.90
3281;DHT22;1652;51.318;6.202;2022-12-26T19:52:05;3.80;99.90
3281;DHT22;1652;51.318;6.202;2022-12-26T19:54:32;3.70;99.90
3281;DHT22;1652;51.318;6.202;2022-12-26T19:56:59;3.70;99.90
3281;DHT22;1652;51.318;6.202;2022-12-26T19:59:25;3.80;99.90
3281;DHT22;1652;51.318;6.202;2022-12-26T20:01:52;3.80;99.90
3281;DHT22;1652;51.318;6.202;2022-12-26T20:04:20;3.70;99.90
3281;DHT22;1652;51.318;6.202;2022-12-26T20:06:46;3.80;99.90
3281;DHT22;1652;51.318;6.202;2022-12-26T20:09:14;3.80;99.90
3281;DHT22;1652;51.318;6.202;2022-12-26T20:11:43;3.70;99.90
3281;DHT22;1652;51.318;6.202;2022-12-26T20:14:13;3.80;99.90
3281;DHT22;1652;51.318;6.202;2022-12-26T20:16:40;3.80;99.90
3281;DHT22;1652;51.318;6.202;2022-12-26T20:19:26;3.90;99.90